Time;durP1;ratioP1;P1;durP2;ratioP2;P2;SDS_P1;SDS_P2;PMS_P1;PMS_P2;Temp;Humidity;BMP_temperature;BMP_pressure;BME280_temperature;BME280_humidity;BME280_pressure;Samples;Min_cycle;Max_cycle;Signal;HPM_P1;HPM_P2
2022/05/27 00:01:35;;;;;;;5.40;3.90;;;;;;;14.13;67.24;98080.70;105955;1281;22629;-91
2022/05/27 00:04:03;;;;;;;6.90;4.70;;;;;;;14.12;67.14;98080.89;106026;1281;22565;-90
2022/05/27 00:06:32;;;;;;;6.00;4.20;;;;;;;14.15;67.33;98082.92;106002;1281;22682;-88
2022/05/27 00:09:00;;;;;;;9.00;4.60;;;;;;;14.15;67.16;98083.63;106000;1281;25643;-91
2022/05/27 00:11:27;;;;;;;7.60;4.60;;;;;;;14.14;67.15;98077.16;105916;1281;25650;-90
2022/05/27 00:13:55;;;;;;;8.50;4.40;;;;;;;14.13;66.99;98075.21;106160;1281;24085;-89
2022/05/27 00:16:23;;;;;;;10.30;4.60;;;;;;;14.12;66.91;98076.34;105979;1281;22577;-88
2022/05/27 00:18:51;;;;;;;7.90;4.40;;;;;;;14.11;67.20;98075.02;107647;1281;22584;-87
2022/05/27 00:21:19;;;;;;;8.40;4.70;;;;;;;14.12;67.40;98073.35;106480;1281;22622;-91
2022/05/27 00:23:47;;;;;;;6.20;4.00;;;;;;;14.15;67.86;98070.30;105977;1281;22820;-90
2022/05/27 00:26:15;;;;;;;7.10;4.50;;;;;;;14.15;67.79;98068.16;106035;1281;25461;-90
2022/05/27 00:28:43;;;;;;;6.90;4.50;;;;;;;14.15;67.45;98066.77;105932;1281;22550;-90
2022/05/27 00:31:11;;;;;;;8.90;4.90;;;;;;;14.14;67.37;98065.61;106102;1281;25726;-91
2022/05/27 00:33:39;;;;;;;10.00;4.90;;;;;;;14.11;67.51;98065.11;105610;1281;22623;-92
2022/05/27 00:36:09;;;;;;;8.20;4.50;;;;;;;14.07;67.60;98064.66;106081;1281;22653;-91
2022/05/27 00:38:39;;;;;;;9.20;4.70;;;;;;;14.07;67.38;98060.23;105938;1281;25651;-92
2022/05/27 00:41:08;;;;;;;9.10;4.70;;;;;;;14.09;67.41;98061.80;105934;1281;24289;-91
2022/05/27 00:43:36;;;;;;;6.10;4.70;;;;;;;14.09;67.69;98057.85;106032;1281;22734;-90
2022/05/27 00:46:11;;;;;;;8.70;4.50;;;;;;;14.08;67.47;98052.38;106088;1281;25588;-88
2022/05/27 00:48:41;;;;;;;6.70;4.50;;;;;;;14.08;67.52;98051.73;106402;1281;22614;-92
2022/05/27 00:51:19;;;;;;;9.00;4.70;;;;;;;14.06;67.36;98049.52;106181;1281;22643;-90
2022/05/27 00:54:04;;;;;;;9.80;4.70;;;;;;;14.06;67.35;98048.79;106333;1281;22885;-92
2022/05/27 00:56:34;;;;;;;;;;;;;;;14.03;67.72;98046.96;106280;1280;25911;-91
2022/05/27 00:59:11;;;;;;;8.30;5.30;;;;;;;14.03;67.31;98049.07;106164;1281;24133;-92
2022/05/27 01:01:40;;;;;;;8.00;5.30;;;;;;;14.07;67.62;98048.40;106304;1281;22872;-94
2022/05/27 01:04:09;;;;;;;7.90;4.90;;;;;;;14.12;67.50;98051.91;106076;1281;24226;-91
2022/05/27 01:06:37;;;;;;;8.00;4.60;;;;;;;14.12;67.36;98048.48;106142;1280;22770;-92
2022/05/27 01:09:06;;;;;;;7.10;4.50;;;;;;;14.12;67.25;98049.58;106139;1281;22985;-95
2022/05/27 01:12:03;;;;;;;7.10;4.70;;;;;;;14.12;67.14;98046.90;106101;1281;22597;-90
2022/05/27 01:15:10;;;;;;;6.50;4.60;;;;;;;14.12;67.02;98045.18;106074;1281;22664;-91
2022/05/27 01:18:03;;;;;;;9.00;5.00;;;;;;;14.09;67.09;98043.30;106011;1280;22774;-86
2022/05/27 01:20:40;;;;;;;8.50;5.30;;;;;;;14.10;67.35;98041.07;106031;1280;25663;-92
2022/05/27 01:23:23;;;;;;;7.90;5.20;;;;;;;14.11;67.22;98038.77;106695;1281;22567;-86
2022/05/27 01:26:25;;;;;;;7.70;5.10;;;;;;;14.09;67.02;98035.08;105922;1281;22899;-93
2022/05/27 01:29:32;;;;;;;10.90;5.80;;;;;;;14.07;67.04;98033.52;105769;1281;24445;-90
2022/05/27 01:32:14;;;;;;;9.20;4.50;;;;;;;14.07;67.02;98032.59;105765;1281;22683;-87
2022/05/27 01:35:10;;;;;;;8.00;5.20;;;;;;;14.05;67.19;98029.63;105846;1281;22557;-90
2022/05/27 01:38:04;;;;;;;9.90;5.40;;;;;;;14.05;67.14;98027.77;105821;1280;25424;-90
2022/05/27 01:40:45;;;;;;;6.50;4.70;;;;;;;14.06;67.12;98023.20;108341;1281;22525;-86
2022/05/27 01:43:30;;;;;;;6.70;4.90;;;;;;;14.07;67.15;98018.73;109363;1281;22745;-85
2022/05/27 01:46:29;;;;;;;7.10;5.00;;;;;;;14.06;67.39;98021.30;109310;1281;22545;-91
2022/05/27 01:49:26;;;;;;;8.50;5.20;;;;;;;14.05;67.24;98019.33;108845;1281;22845;-88
2022/05/27 01:52:00;;;;;;;9.20;4.90;;;;;;;14.05;67.39;98014.66;109435;1281;23033;-89
2022/05/27 01:54:32;;;;;;;7.10;4.60;;;;;;;14.05;67.25;98013.84;109311;1281;22659;-89
2022/05/27 01:57:11;;;;;;;7.10;4.90;;;;;;;14.06;67.20;98015.38;108466;1281;22570;-89
2022/05/27 01:59:56;;;;;;;5.40;4.30;;;;;;;14.09;67.23;98012.31;107212;1281;23395;-90
2022/05/27 02:02:27;;;;;;;7.00;4.50;;;;;;;14.11;67.34;98006.67;105723;1281;23654;-89
2022/05/27 02:05:17;;;;;;;6.10;4.50;;;;;;;14.09;67.20;98008.36;105810;1281;24391;-90
2022/05/27 02:07:56;;;;;;;9.10;5.40;;;;;;;14.08;67.19;98004.66;105632;1281;22649;-90
2022/05/27 02:10:32;;;;;;;8.90;4.00;;;;;;;14.04;67.31;98000.27;105732;1281;22691;-89
2022/05/27 02:13:07;;;;;;;7.90;4.70;;;;;;;14.01;67.04;98001.61;105752;1281;22667;-90
2022/05/27 02:15:43;;;;;;;6.70;4.30;;;;;;;14.00;67.01;98000.20;105743;1281;24076;-91
2022/05/27 02:18:37;;;;;;;7.50;4.10;;;;;;;13.97;66.85;97996.77;105732;1281;25663;-90
2022/05/27 02:21:14;;;;;;;5.90;4.10;;;;;;;13.96;66.96;97998.48;105635;1281;22528;-90
2022/05/27 02:23:58;;;;;;;7.10;4.10;;;;;;;13.96;67.11;97997.59;105739;1281;25574;-89
2022/05/27 02:26:31;;;;;;;7.90;4.30;;;;;;;13.97;67.23;97991.08;105826;1281;24298;-91
2022/05/27 02:29:08;;;;;;;6.50;3.60;;;;;;;13.97;67.23;97987.61;105738;1281;24477;-90
2022/05/27 02:31:38;;;;;;;9.10;4.20;;;;;;;13.97;67.24;97985.99;105873;1281;22649;-91
2022/05/27 02:37:10;;;;;;;6.00;3.90;;;;;;;13.94;67.20;97984.55;105974;1281;23133;-93
2022/05/27 02:39:39;;;;;;;4.70;3.70;;;;;;;13.94;67.41;97981.85;106622;1281;23951;-92
2022/05/27 02:42:28;;;;;;;8.70;3.80;;;;;;;13.96;67.25;97977.54;106371;1281;25444;-91
2022/05/27 02:45:25;;;;;;;4.90;3.20;;;;;;;14.02;67.61;97971.73;106233;1281;24235;-93
2022/05/27 02:47:56;;;;;;;8.10;3.40;;;;;;;14.06;67.38;97973.84;105763;1283;22550;-91
2022/05/27 02:50:33;;;;;;;4.50;3.20;;;;;;;14.07;67.47;97976.08;106173;1281;24078;-93
2022/05/27 02:53:11;;;;;;;7.50;3.60;;;;;;;14.09;67.36;97972.92;106078;1281;23013;-94
2022/05/27 02:56:08;;;;;;;4.80;2.80;;;;;;;14.10;67.20;97971.39;106023;1281;22641;-91
2022/05/27 02:58:37;;;;;;;5.80;3.20;;;;;;;14.12;67.12;97968.52;105796;1281;25654;-92
2022/05/27 03:01:05;;;;;;;5.80;3.30;;;;;;;14.13;67.30;97969.22;105911;1281;26732;-92
2022/05/27 03:03:34;;;;;;;7.30;3.10;;;;;;;14.17;67.37;97968.23;105926;1281;22579;-91
2022/05/27 03:06:05;;;;;;;5.00;3.30;;;;;;;14.19;67.20;97964.66;105766;1281;24095;-90
2022/05/27 03:09:04;;;;;;;5.30;3.70;;;;;;;14.19;67.03;97958.17;105787;1281;22741;-90
2022/05/27 03:11:46;;;;;;;5.50;3.70;;;;;;;14.20;67.05;97958.81;105738;1281;25433;-89
2022/05/27 03:14:28;;;;;;;7.30;3.30;;;;;;;14.19;66.84;97962.51;105801;1281;22874;-90
2022/05/27 03:16:56;;;;;;;6.70;3.40;;;;;;;14.19;67.03;97956.21;105783;1281;22700;-91
2022/05/27 03:19:52;;;;;;;10.20;3.50;;;;;;;14.18;67.02;97957.11;105872;1281;22665;-93
2022/05/27 03:22:23;;;;;;;6.00;3.90;;;;;;;14.20;66.97;97955.02;106003;1281;22554;-90
2022/05/27 03:25:16;;;;;;;5.30;3.60;;;;;;;14.21;67.07;97955.42;105945;1281;23262;-92
2022/05/27 03:27:47;;;;;;;7.10;3.70;;;;;;;14.22;67.11;97950.48;105963;1281;23737;-91
2022/05/27 03:30:41;;;;;;;5.70;3.10;;;;;;;14.23;66.89;97957.35;107127;1281;22583;-92
2022/05/27 03:33:27;;;;;;;6.50;3.20;;;;;;;14.23;67.07;97952.98;106627;1281;24199;-87
2022/05/27 03:36:24;;;;;;;4.40;3.00;;;;;;;14.23;67.10;97956.54;108256;1281;22545;-89
2022/05/27 03:38:59;;;;;;;5.10;3.20;;;;;;;14.24;67.04;97952.40;107064;1281;23929;-90
2022/05/27 03:41:36;;;;;;;6.50;3.20;;;;;;;14.27;67.21;97950.67;106209;1281;22605;-90
2022/05/27 03:44:06;;;;;;;7.30;3.30;;;;;;;14.30;67.09;97951.29;106198;1281;22739;-91
2022/05/27 03:46:36;;;;;;;7.60;3.50;;;;;;;14.30;67.09;97951.38;106086;1281;24199;-88
2022/05/27 03:49:06;;;;;;;7.50;3.40;;;;;;;14.32;67.03;97950.03;106153;1282;22574;-90
2022/05/27 03:51:37;;;;;;;5.10;3.20;;;;;;;14.32;66.94;97948.50;105836;1281;22768;-90
2022/05/27 03:54:09;;;;;;;5.90;3.50;;;;;;;14.32;66.87;97951.14;105390;1281;25478;-91
2022/05/27 03:56:40;;;;;;;7.10;4.10;;;;;;;14.33;66.93;97947.45;105858;1281;22743;-92
2022/05/27 03:59:11;;;;;;;9.70;4.60;;;;;;;14.33;66.83;97947.48;105850;1281;22554;-91
2022/05/27 04:01:43;;;;;;;5.80;3.40;;;;;;;14.38;67.00;97946.35;105795;1281;25585;-91
2022/05/27 04:04:19;;;;;;;6.50;3.40;;;;;;;14.41;66.85;97946.35;106428;1281;22680;-93
2022/05/27 04:06:48;;;;;;;3.70;2.70;;;;;;;14.43;66.81;97946.81;106025;1281;24224;-92
2022/05/27 04:09:20;;;;;;;4.40;3.00;;;;;;;14.43;66.62;97943.79;106023;1281;24384;-94
2022/05/27 04:11:49;;;;;;;8.00;3.90;;;;;;;14.43;66.46;97939.77;106720;1281;24350;-94
2022/05/27 04:14:18;;;;;;;8.20;4.80;;;;;;;14.43;66.34;97939.38;106552;1281;22889;-92
2022/05/27 04:16:48;;;;;;;7.00;2.90;;;;;;;14.44;66.02;97939.05;106443;1283;22843;-94
2022/05/27 04:19:19;;;;;;;8.20;4.60;;;;;;;14.43;66.06;97929.63;106686;1281;22573;-93
2022/05/27 04:21:46;;;;;;;7.50;4.10;;;;;;;14.44;65.88;97930.30;106670;1281;22587;-94
2022/05/27 04:24:14;;;;;;;8.10;4.70;;;;;;;14.45;65.88;97928.45;106748;1281;23366;-92
2022/05/27 04:26:42;;;;;;;8.40;3.30;;;;;;;14.45;65.95;97927.20;107050;1281;24272;-90
2022/05/27 04:29:10;;;;;;;5.80;3.30;;;;;;;14.47;65.87;97927.93;107253;1281;24360;-94
2022/05/27 04:31:38;;;;;;;5.90;3.20;;;;;;;14.50;65.93;97923.44;106949;1281;22566;-92
2022/05/27 04:34:10;;;;;;;5.10;2.90;;;;;;;14.53;65.71;97925.90;106525;1281;22596;-93
2022/05/27 04:36:38;;;;;;;7.10;3.30;;;;;;;14.57;65.65;97924.56;106397;1281;25726;-94
2022/05/27 04:39:06;;;;;;;5.10;3.10;;;;;;;14.57;65.45;97923.31;106448;1281;22787;-94
2022/05/27 04:41:34;;;;;;;6.20;4.80;;;;;;;14.58;65.34;97921.13;106310;1281;22748;-90
2022/05/27 04:44:02;;;;;;;14.00;6.70;;;;;;;14.59;65.36;97912.80;106602;1281;22573;-93
2022/05/27 04:46:29;;;;;;;10.10;4.50;;;;;;;14.62;65.13;97916.61;106261;1281;22549;-94
2022/05/27 04:48:57;;;;;;;11.30;6.70;;;;;;;14.62;65.11;97912.92;106066;1281;22562;-93
2022/05/27 04:51:25;;;;;;;7.90;4.90;;;;;;;14.64;64.55;97910.20;105948;1281;22827;-93
2022/05/27 04:53:53;;;;;;;8.40;5.10;;;;;;;14.62;64.76;97904.88;106245;1281;22565;-92
2022/05/27 04:56:26;;;;;;;9.80;5.80;;;;;;;14.65;64.79;97904.85;106197;1281;25450;-93
2022/05/27 04:58:54;;;;;;;8.10;4.70;;;;;;;14.69;64.77;97906.16;106009;1281;22609;-91
2022/05/27 05:01:22;;;;;;;8.10;4.50;;;;;;;14.72;64.63;97902.33;105994;1281;22559;-92
2022/05/27 05:03:50;;;;;;;9.00;4.90;;;;;;;14.71;64.66;97901.15;106116;1281;22575;-91
2022/05/27 05:06:18;;;;;;;8.40;4.20;;;;;;;14.73;64.49;97908.15;105569;1284;22499;-92
2022/05/27 05:08:46;;;;;;;9.90;5.30;;;;;;;14.73;64.18;97907.33;105811;1281;24777;-92
2022/05/27 05:11:14;;;;;;;9.00;5.60;;;;;;;14.70;64.39;97904.27;105714;1281;22712;-90
2022/05/27 05:13:42;;;;;;;7.10;5.10;;;;;;;14.73;64.45;97900.91;105834;1281;22613;-87
2022/05/27 05:16:10;;;;;;;7.70;5.80;;;;;;;14.79;64.66;97896.42;107082;1281;22556;-91
2022/05/27 05:18:38;;;;;;;12.20;8.50;;;;;;;14.83;64.53;97896.79;107557;1281;22569;-91
2022/05/27 05:21:06;;;;;;;11.30;7.00;;;;;;;14.84;64.35;97895.30;105938;1281;24807;-91
2022/05/27 05:23:37;;;;;;;12.10;8.30;;;;;;;14.86;64.13;97893.11;105927;1281;22570;-91
2022/05/27 05:26:05;;;;;;;10.20;8.20;;;;;;;14.88;64.22;97890.09;105724;1281;22688;-92
2022/05/27 05:28:36;;;;;;;9.20;7.20;;;;;;;14.93;64.16;97890.00;105816;1281;22706;-94
2022/05/27 05:31:06;;;;;;;8.30;6.40;;;;;;;14.97;63.95;97888.52;105651;1283;22674;-89
2022/05/27 05:33:34;;;;;;;13.20;10.80;;;;;;;14.99;64.08;97887.29;108060;1281;23944;-92
2022/05/27 05:36:02;;;;;;;9.40;6.80;;;;;;;15.03;63.72;97889.43;106989;1281;23079;-91
2022/05/27 05:38:30;;;;;;;9.90;8.00;;;;;;;15.04;63.70;97885.92;105955;1281;22645;-91
2022/05/27 05:40:58;;;;;;;10.10;7.00;;;;;;;15.06;63.58;97885.95;105833;1283;25520;-93
2022/05/27 05:43:26;;;;;;;13.00;8.50;;;;;;;15.10;63.39;97885.62;105907;1282;22575;-92
2022/05/27 05:45:58;;;;;;;9.50;5.00;;;;;;;15.09;63.28;97884.04;105640;1284;22554;-90
2022/05/27 05:48:26;;;;;;;9.00;5.50;;;;;;;15.09;63.21;97886.21;105591;1283;24339;-91
2022/05/27 05:50:54;;;;;;;13.60;7.90;;;;;;;15.12;63.25;97882.98;105427;1283;24265;-90
2022/05/27 05:53:22;;;;;;;8.50;4.30;;;;;;;15.13;63.14;97887.44;105591;1284;25440;-86
2022/05/27 05:55:50;;;;;;;10.00;5.30;;;;;;;15.10;62.92;97888.86;105908;1283;22695;-90
2022/05/27 05:58:18;;;;;;;8.60;5.30;;;;;;;15.04;63.10;97882.58;105591;1282;24312;-93
2022/05/27 06:00:46;;;;;;;8.00;4.40;;;;;;;15.06;63.15;97886.67;105690;1283;24305;-91
2022/05/27 06:03:14;;;;;;;8.50;5.20;;;;;;;15.07;63.00;97873.32;105629;1283;22574;-90
2022/05/27 06:05:42;;;;;;;9.50;4.90;;;;;;;15.07;63.10;97873.80;105671;1283;25680;-88
2022/05/27 06:08:10;;;;;;;9.00;6.60;;;;;;;15.11;63.21;97865.33;105507;1282;22747;-90
2022/05/27 06:10:38;;;;;;;8.30;5.80;;;;;;;15.17;63.24;97860.40;105680;1283;24500;-91
2022/05/27 06:13:06;;;;;;;8.30;4.20;;;;;;;15.26;63.10;97858.84;105496;1283;22751;-90
2022/05/27 06:15:34;;;;;;;13.60;8.60;;;;;;;15.30;63.16;97856.91;105789;1283;23074;-92
2022/05/27 06:18:13;;;;;;;9.80;5.00;;;;;;;15.39;63.12;97856.63;105769;1283;24126;-91
2022/05/27 06:20:41;;;;;;;10.30;5.00;;;;;;;15.45;62.83;97852.91;105693;1282;22555;-92
2022/05/27 06:23:10;;;;;;;9.30;6.10;;;;;;;15.48;62.93;97853.83;105871;1283;22639;-87
2022/05/27 06:25:39;;;;;;;8.70;5.70;;;;;;;15.52;62.95;97853.98;105654;1283;22584;-89
2022/05/27 06:36:35;;;;;;;6.00;3.30;;;;;;;15.80;62.57;97854.02;106452;1281;22680;-91
2022/05/27 06:39:14;;;;;;;8.20;4.60;;;;;;;15.83;62.27;97853.04;106191;1281;22776;-90
2022/05/27 06:41:44;;;;;;;5.90;2.80;;;;;;;15.82;62.23;97845.10;107327;1281;22545;-91
2022/05/27 06:44:11;;;;;;;6.60;3.50;;;;;;;15.87;62.09;97846.21;107413;1281;25926;-92
2022/05/27 06:46:40;;;;;;;17.10;6.70;;;;;;;15.91;62.28;97839.98;107303;1281;22541;-93
2022/05/27 06:49:08;;;;;;;10.50;5.00;;;;;;;16.01;62.22;97829.86;106768;1281;24366;-90
2022/05/27 06:51:39;;;;;;;11.70;4.40;;;;;;;16.16;62.22;97825.38;106090;1281;22684;-92
2022/05/27 06:54:09;;;;;;;12.60;5.50;;;;;;;16.31;62.06;97830.17;105924;1281;22661;-90
2022/05/27 06:56:39;;;;;;;10.40;4.00;;;;;;;16.43;61.42;97827.83;106998;1281;22580;-86
2022/05/27 06:59:08;;;;;;;7.30;3.80;;;;;;;16.47;60.89;97828.90;106106;1281;22572;-89
2022/05/27 07:01:36;;;;;;;13.60;6.30;;;;;;;16.51;60.81;97825.04;105839;1281;22609;-92
2022/05/27 07:04:05;;;;;;;17.60;9.40;;;;;;;16.58;60.74;97827.45;105798;1281;22659;-92
2022/05/27 07:06:37;;;;;;;15.90;7.90;;;;;;;16.67;60.78;97821.54;105953;1281;22493;-88
2022/05/27 07:09:05;;;;;;;11.80;5.30;;;;;;;16.80;60.72;97810.61;105982;1281;25482;-92
2022/05/27 07:11:35;;;;;;;10.50;4.50;;;;;;;16.96;60.89;97808.08;105852;1281;22560;-90
2022/05/27 07:14:03;;;;;;;11.10;5.80;;;;;;;17.15;60.45;97802.73;105892;1281;23512;-84
2022/05/27 07:16:31;;;;;;;19.10;3.90;;;;;;;17.27;60.06;97803.29;106407;1281;22900;-88
2022/05/27 07:19:20;;;;;;;6.70;3.40;;;;;;;17.29;59.56;97801.82;108030;1281;22535;-90
2022/05/27 07:21:48;;;;;;;13.20;6.00;;;;;;;17.29;59.18;97800.34;108917;1281;22585;-87
2022/05/27 07:24:25;;;;;;;13.30;6.20;;;;;;;17.30;59.40;97796.92;109196;1281;22749;-87
2022/05/27 07:26:52;;;;;;;8.10;3.70;;;;;;;17.36;59.06;97797.25;109144;1282;22588;-86
2022/05/27 07:29:20;;;;;;;6.40;4.60;;;;;;;17.36;58.71;97788.15;108986;1282;22560;-86
2022/05/27 07:31:48;;;;;;;12.10;6.50;;;;;;;17.40;58.45;97790.90;109025;1282;22602;-88
2022/05/27 07:34:16;;;;;;;7.10;3.60;;;;;;;17.40;58.31;97787.57;108592;1282;22545;-90
2022/05/27 07:36:44;;;;;;;7.70;4.60;;;;;;;17.40;58.13;97781.58;109078;1282;22629;-87
2022/05/27 07:39:37;;;;;;;9.50;3.50;;;;;;;17.47;58.04;97784.74;109026;1281;22691;-88
2022/05/27 07:42:05;;;;;;;13.30;6.80;;;;;;;17.66;58.11;97779.19;107987;1280;22544;-91
2022/05/27 07:44:33;;;;;;;12.00;6.70;;;;;;;17.85;57.36;97766.80;106124;1281;22586;-89
2022/05/27 07:47:01;;;;;;;11.50;5.50;;;;;;;18.00;57.30;97764.14;106029;1280;22687;-92
2022/05/27 07:49:29;;;;;;;6.40;2.80;;;;;;;18.19;56.37;97758.05;106335;1280;22583;-91
2022/05/27 07:52:01;;;;;;;7.20;2.70;;;;;;;18.29;55.95;97753.71;106866;1280;25332;-91
2022/05/27 07:54:29;;;;;;;6.80;3.40;;;;;;;18.34;55.62;97747.21;106437;1280;22709;-92
2022/05/27 07:56:58;;;;;;;8.30;2.70;;;;;;;18.38;55.62;97741.16;106584;1280;22713;-93
2022/05/27 07:59:27;;;;;;;8.10;3.20;;;;;;;18.45;55.57;97745.67;106236;1280;22558;-90
2022/05/27 08:01:55;;;;;;;7.70;3.50;;;;;;;18.48;55.14;97739.59;106121;1280;25405;-89
2022/05/27 08:04:23;;;;;;;8.70;5.10;;;;;;;18.48;54.90;97732.34;106188;1280;22625;-92
2022/05/27 08:06:51;;;;;;;9.30;4.50;;;;;;;18.55;55.09;97733.20;106311;1280;25423;-92
2022/05/27 08:09:19;;;;;;;11.40;3.80;;;;;;;18.62;54.74;97726.80;106300;1280;25405;-90
2022/05/27 08:11:47;;;;;;;21.70;3.90;;;;;;;18.63;54.75;97723.63;106316;1280;22723;-92
2022/05/27 08:14:15;;;;;;;11.60;4.00;;;;;;;18.70;55.19;97720.59;106758;1280;25389;-91
2022/05/27 08:16:43;;;;;;;8.30;3.30;;;;;;;18.82;54.93;97720.75;106599;1280;24833;-90
2022/05/27 08:19:11;;;;;;;6.30;2.90;;;;;;;18.91;54.90;97719.44;106211;1280;23411;-90
2022/05/27 08:21:38;;;;;;;5.90;2.80;;;;;;;18.90;54.06;97720.20;106007;1280;22882;-88
2022/05/27 08:24:08;;;;;;;7.80;3.00;;;;;;;18.85;54.14;97716.04;106184;1280;24224;-90
2022/05/27 08:26:38;;;;;;;6.70;3.00;;;;;;;18.85;54.18;97717.44;106181;1280;24367;-88
2022/05/27 08:29:07;;;;;;;7.20;3.70;;;;;;;18.86;53.92;97719.41;106426;1279;25822;-89
2022/05/27 08:31:36;;;;;;;8.00;4.70;;;;;;;18.87;53.85;97715.54;106119;1280;22868;-88
2022/05/27 08:39:47;;;;;;;10.10;3.10;;;;;;;19.18;53.68;97705.48;106506;1280;22577;-90
2022/05/27 08:42:35;;;;;;;7.80;2.80;;;;;;;19.17;53.93;97692.19;106320;1280;25445;-88
2022/05/27 08:45:28;;;;;;;8.50;3.00;;;;;;;19.27;53.97;97691.45;106070;1280;23487;-88
2022/05/27 08:48:01;;;;;;;8.40;4.30;;;;;;;19.35;53.48;97688.09;106188;1280;25307;-88
2022/05/27 08:50:38;;;;;;;7.50;4.10;;;;;;;19.43;53.14;97688.55;106301;1280;22624;-90
2022/05/27 08:53:22;;;;;;;10.20;4.00;;;;;;;19.60;52.69;97686.20;106341;1279;25386;-89
2022/05/27 09:01:51;;;;;;;7.40;2.90;;;;;;;19.60;51.78;97675.89;106209;1280;25337;-88
2022/05/27 09:04:40;;;;;;;9.20;4.00;;;;;;;19.65;51.50;97675.86;106169;1280;22895;-88
2022/05/27 09:07:31;;;;;;;7.30;2.60;;;;;;;19.70;51.48;97674.47;106191;1280;25320;-89
2022/05/27 09:10:03;;;;;;;9.70;3.90;;;;;;;19.72;50.99;97669.65;106204;1280;22635;-90
2022/05/27 09:12:59;;;;;;;8.40;2.90;;;;;;;19.71;51.35;97679.88;106300;1280;23793;-90
2022/05/27 09:15:56;;;;;;;8.50;2.80;;;;;;;19.69;50.29;97673.26;106207;1279;22546;-88
2022/05/27 09:18:47;;;;;;;9.60;2.90;;;;;;;19.65;50.44;97675.46;106289;1280;23093;-89
2022/05/27 09:21:32;;;;;;;9.60;3.00;;;;;;;19.65;50.31;97682.73;106285;1280;22654;-87
2022/05/27 09:24:18;;;;;;;8.60;2.50;;;;;;;19.66;50.22;97664.79;106241;1280;22787;-88
2022/05/27 09:26:58;;;;;;;9.70;3.20;;;;;;;19.66;50.23;97662.30;105999;1280;24050;-91
2022/05/27 09:29:54;;;;;;;6.80;2.80;;;;;;;19.61;50.00;97654.21;106248;1280;22948;-90
2022/05/27 09:32:47;;;;;;;9.60;3.40;;;;;;;19.53;50.15;97655.55;105980;1280;22565;-88
2022/05/27 09:35:46;;;;;;;12.70;3.70;;;;;;;19.53;50.36;97652.13;106255;1280;22699;-87
2022/05/27 09:38:27;;;;;;;7.60;2.80;;;;;;;19.65;50.21;97647.95;105930;1280;22572;-84
2022/05/27 09:41:01;;;;;;;10.30;3.50;;;;;;;19.73;50.15;97635.70;106168;1279;22730;-87
2022/05/27 09:44:17;;;;;;;6.80;3.10;;;;;;;19.96;50.09;97625.44;105979;1280;22720;-86
2022/05/27 09:46:45;;;;;;;6.90;2.90;;;;;;;20.28;49.68;97629.13;105610;1286;25451;-85
2022/05/27 09:49:13;;;;;;;12.40;3.30;;;;;;;20.33;49.20;97634.58;105594;1286;23107;-83
2022/05/27 09:51:41;;;;;;;7.10;3.00;;;;;;;20.38;49.07;97635.29;105662;1285;23119;-87
2022/05/27 09:54:34;;;;;;;5.90;2.70;;;;;;;20.40;48.61;97629.92;105643;1286;24680;-88
2022/05/27 09:57:13;;;;;;;4.30;2.40;;;;;;;20.32;48.68;97627.31;105615;1286;25405;-88
2022/05/27 09:59:47;;;;;;;7.40;3.10;;;;;;;20.18;49.16;97622.17;105551;1286;22643;-87
2022/05/27 10:02:20;;;;;;;;;;;;;;;20.10;48.85;97631.04;105580;1286;24256;-84
2022/05/27 10:05:01;;;;;;;11.90;3.20;;;;;;;19.92;48.80;97611.64;105823;1286;22869;-90
2022/05/27 10:07:51;;;;;;;9.40;3.50;;;;;;;19.86;49.45;97608.66;105411;1286;24230;-89
2022/05/27 10:10:34;;;;;;;6.60;2.60;;;;;;;19.99;49.27;97613.84;105635;1286;24256;-89
2022/05/27 10:13:17;;;;;;;13.90;3.30;;;;;;;20.04;49.06;97608.83;105526;1286;22556;-87
2022/05/27 10:15:46;;;;;;;12.90;3.00;;;;;;;19.99;49.02;97605.73;105695;1286;23290;-88
2022/05/27 10:18:23;;;;;;;7.90;2.70;;;;;;;19.88;49.54;97592.73;106538;1286;22567;-82
2022/05/27 10:20:58;;;;;;;12.00;4.00;;;;;;;19.82;49.64;97594.29;105177;1286;578645;-89
2022/05/27 10:23:33;;;;;;;14.70;3.60;;;;;;;19.78;49.38;97590.09;106001;1279;25519;-86
2022/05/27 10:26:22;;;;;;;12.50;2.90;;;;;;;19.83;49.23;97588.69;106078;1280;24424;-88
2022/05/27 10:29:15;;;;;;;9.50;2.80;;;;;;;19.93;48.96;97588.30;106059;1280;23943;-89
2022/05/27 10:31:53;;;;;;;12.10;3.10;;;;;;;19.95;49.18;97580.67;106067;1280;22563;-90
2022/05/27 10:34:47;;;;;;;10.90;3.40;;;;;;;19.98;49.41;97576.72;106207;1279;25324;-90
2022/05/27 10:37:55;;;;;;;9.00;3.20;;;;;;;19.96;49.66;97577.64;106123;1280;22578;-89
2022/05/27 10:40:47;;;;;;;10.20;3.10;;;;;;;19.90;49.80;97579.58;106065;1280;24486;-88
2022/05/27 10:43:15;;;;;;;11.10;3.60;;;;;;;19.86;49.98;97577.70;105797;1280;24534;-90
2022/05/27 10:45:47;;;;;;;8.90;3.60;;;;;;;19.83;50.25;97576.34;106283;1280;22600;-88
2022/05/27 10:48:33;;;;;;;7.30;2.70;;;;;;;19.78;50.45;97579.23;106293;1280;25426;-88
2022/05/27 10:51:34;;;;;;;6.10;2.90;;;;;;;19.76;50.64;97567.41;106002;1280;22494;-92
2022/05/27 10:54:11;;;;;;;7.40;3.10;;;;;;;19.71;51.09;97575.61;105762;1281;22868;-89
2022/05/27 11:03:07;;;;;;;9.10;3.30;;;;;;;19.41;52.40;97563.30;105224;1287;22611;-87
2022/05/27 11:05:54;;;;;;;9.70;3.50;;;;;;;19.31;52.56;97555.42;105236;1287;22797;-87
2022/05/27 11:08:26;;;;;;;10.30;6.40;;;;;;;19.21;52.70;97558.75;105163;1288;22613;-91
2022/05/27 11:11:12;;;;;;;6.70;3.40;;;;;;;19.18;52.76;97548.86;105209;1287;22641;-90
2022/05/27 11:17:03;;;;;;;9.80;5.50;;;;;;;19.03;53.17;97540.71;105339;1287;25580;-88
2022/05/27 11:19:40;;;;;;;9.00;3.60;;;;;;;18.98;53.35;97543.13;105338;1287;22727;-90
2022/05/27 11:22:11;;;;;;;11.10;4.10;;;;;;;18.93;53.37;97532.18;105315;1287;22605;-88
2022/05/27 11:25:01;;;;;;;8.70;3.30;;;;;;;18.89;54.06;97526.41;105386;1287;22589;-89
2022/05/27 11:28:00;;;;;;;9.50;5.40;;;;;;;18.76;54.96;97520.41;105360;1287;22562;-89
2022/05/27 11:30:42;;;;;;;9.10;3.10;;;;;;;18.68;55.28;97543.79;105690;1280;24329;-88
2022/05/27 11:33:20;;;;;;;9.80;3.40;;;;;;;18.66;55.70;97534.77;106214;1280;22541;-85
2022/05/27 11:35:58;;;;;;;6.50;2.80;;;;;;;18.65;55.93;97533.83;106001;1280;22621;-82
2022/05/27 11:38:47;;;;;;;11.40;3.70;;;;;;;18.63;57.48;97536.12;106041;1280;22708;-85
2022/05/27 11:41:21;;;;;;;6.80;3.10;;;;;;;18.44;59.75;97529.20;106179;1280;22560;-91
2022/05/27 11:43:58;;;;;;;10.60;3.50;;;;;;;18.17;61.90;97530.28;106189;1280;25036;-88
2022/05/27 11:46:47;;;;;;;10.60;3.20;;;;;;;17.83;64.30;97539.04;106160;1280;22894;-88
2022/05/27 11:49:21;;;;;;;7.10;4.10;;;;;;;17.53;66.05;97547.66;106095;1280;22620;-88
2022/05/27 11:52:13;;;;;;;10.60;4.20;;;;;;;17.26;68.32;97552.77;106288;1279;23963;-88
2022/05/27 11:55:23;;;;;;;7.40;3.70;;;;;;;16.85;69.13;97568.27;106169;1280;22589;-86
2022/05/27 11:57:56;;;;;;;14.10;4.20;;;;;;;16.45;72.07;97561.84;105610;1286;25329;-86
2022/05/27 12:00:28;;;;;;;8.90;4.50;;;;;;;16.16;73.89;97565.91;105853;1286;22719;-86
2022/05/27 12:03:05;;;;;;;10.80;4.60;;;;;;;16.07;76.28;97564.77;105663;1286;23345;-86
2022/05/27 12:05:41;;;;;;;7.70;4.50;;;;;;;15.90;76.60;97569.16;105526;1286;25303;-84
2022/05/27 12:08:43;;;;;;;8.60;4.00;;;;;;;15.79;77.52;97560.05;105444;1286;22765;-84
2022/05/27 12:11:15;;;;;;;8.50;4.20;;;;;;;15.70;78.26;97547.09;105522;1286;22730;-84
2022/05/27 12:13:52;;;;;;;8.40;4.40;;;;;;;15.63;77.66;97547.75;105631;1286;22561;-84
2022/05/27 12:16:28;;;;;;;10.30;4.80;;;;;;;15.62;78.68;97542.66;105665;1286;22934;-86
2022/05/27 12:19:00;;;;;;;12.20;4.30;;;;;;;15.60;80.19;97537.00;105621;1286;22567;-85
2022/05/27 12:21:42;;;;;;;7.20;4.30;;;;;;;15.57;80.23;97551.13;105712;1286;22776;-86
2022/05/27 12:24:23;;;;;;;8.60;4.20;;;;;;;15.56;80.95;97544.80;105347;1286;23950;-85
2022/05/27 12:26:53;;;;;;;7.30;4.40;;;;;;;15.55;82.08;97544.91;105562;1286;23523;-86
2022/05/27 12:29:23;;;;;;;7.10;4.70;;;;;;;15.50;82.19;97549.20;105709;1286;22600;-91
2022/05/27 12:31:53;;;;;;;8.40;5.20;;;;;;;15.46;83.32;97553.55;105746;1286;22553;-90
2022/05/27 12:34:27;;;;;;;8.90;6.30;;;;;;;15.39;84.17;97558.65;105693;1286;24037;-91
2022/05/27 12:36:59;;;;;;;9.50;5.30;;;;;;;15.30;85.68;97560.71;106232;1280;22570;-88